createdAt,value
2023-04-21T00:02:53.188Z,14.87
2023-04-21T00:07:56.562Z,14.55
2023-04-21T00:13:01.148Z,14.35
2023-04-21T00:18:04.994Z,14.33
2023-04-21T00:23:08.308Z,14.11
2023-04-21T00:28:12.931Z,14.25
2023-04-21T00:33:16.194Z,14.65
2023-04-21T00:38:19.475Z,14.56
2023-04-21T00:43:25.890Z,14.64
2023-04-21T00:48:29.301Z,14.89
2023-04-21T00:53:32.517Z,14.75
2023-04-21T00:58:41.401Z,14.75
2023-04-21T01:03:44.837Z,14.88
2023-04-21T01:08:48.175Z,14.67
2023-04-21T01:13:55.704Z,14.26
2023-04-21T01:18:59.376Z,14.16
2023-04-21T01:24:03.965Z,14.10
2023-04-21T01:29:07.294Z,14.23
2023-04-21T01:34:10.558Z,14.40
2023-04-21T01:39:15.166Z,14.29
2023-04-21T01:44:18.420Z,14.47
2023-04-21T01:49:21.695Z,14.03
2023-04-21T01:54:26.468Z,13.96
2023-04-21T01:59:29.774Z,13.80
2023-04-21T02:04:33.365Z,13.65
2023-04-21T02:09:38.081Z,13.85
2023-04-21T02:14:41.313Z,13.98
2023-04-21T02:19:44.645Z,14.19
2023-04-21T02:24:49.338Z,14.10
2023-04-21T02:29:52.567Z,13.99
2023-04-21T02:34:55.850Z,13.96
2023-04-21T02:40:00.504Z,13.75
2023-04-21T02:45:03.786Z,13.51
2023-04-21T02:50:08.139Z,13.35
2023-04-21T02:55:12.863Z,13.04
2023-04-21T03:00:17.921Z,12.97
2023-04-21T03:05:21.360Z,13.34
2023-04-21T03:10:26.162Z,13.25
2023-04-21T03:15:29.735Z,13.44
2023-04-21T03:20:33.189Z,13.64
2023-04-21T03:25:39.762Z,13.16
2023-04-21T03:30:43.009Z,13.19
2023-04-21T03:35:46.324Z,13.07
2023-04-21T03:40:51.527Z,13.19
2023-04-21T03:45:54.846Z,13.10
2023-04-21T03:50:58.103Z,13.38
2023-04-21T03:56:02.687Z,13.14
2023-04-21T04:01:07.843Z,13.20
2023-04-21T04:06:10.793Z,13.27
2023-04-21T04:11:15.423Z,13.41
2023-04-21T04:16:18.966Z,13.26
2023-04-21T04:21:22.199Z,13.09
2023-04-21T04:26:27.017Z,13.28
2023-04-21T04:31:30.773Z,13.30
2023-04-21T04:36:34.200Z,13.29
2023-04-21T04:41:38.896Z,13.40
2023-04-21T04:46:43.155Z,12.90
2023-04-21T04:51:46.359Z,12.95
2023-04-21T04:56:51.158Z,12.45
2023-04-21T05:01:54.465Z,12.56
2023-04-21T05:06:57.737Z,12.33
2023-04-21T05:12:02.809Z,12.35
2023-04-21T05:17:05.864Z,12.45
2023-04-21T05:22:09.245Z,12.36
2023-04-21T05:27:13.931Z,12.58
2023-04-21T05:32:17.188Z,12.74
2023-04-21T05:37:20.527Z,12.85
2023-04-21T05:42:25.056Z,12.67
2023-04-21T05:47:28.363Z,12.79
2023-04-21T05:52:31.635Z,12.54
2023-04-21T05:57:36.386Z,12.33
2023-04-21T06:02:40.077Z,12.02
2023-04-21T06:07:43.475Z,11.97
2023-04-21T06:12:48.185Z,11.94
2023-04-21T06:17:54.765Z,11.91
2023-04-21T06:22:58.146Z,11.81
2023-04-21T06:28:02.872Z,11.86
2023-04-21T06:33:06.974Z,11.76
2023-04-21T06:38:10.579Z,11.77
2023-04-21T06:43:15.221Z,11.87
2023-04-21T06:48:18.504Z,12.04
2023-04-21T06:53:21.969Z,12.39
2023-04-21T06:58:26.777Z,12.87
2023-04-21T07:03:30.161Z,13.04
2023-04-21T07:08:33.478Z,13.33
2023-04-21T07:13:38.104Z,13.63
2023-04-21T07:18:42.240Z,13.66
2023-04-21T07:23:45.549Z,13.99
2023-04-21T07:28:50.828Z,14.20
2023-04-21T07:33:54.095Z,14.57
2023-04-21T07:38:57.482Z,14.26
2023-04-21T07:44:02.055Z,13.94
2023-04-21T07:49:05.347Z,13.51
2023-04-21T07:54:08.607Z,13.53
2023-04-21T07:59:13.278Z,13.79
2023-04-21T08:04:17.205Z,14.44
2023-04-21T08:09:20.803Z,15.53
2023-04-21T08:14:27.177Z,16.03
2023-04-21T08:19:30.568Z,16.59
2023-04-21T08:24:34.151Z,16.41
2023-04-21T08:29:38.783Z,16.86
2023-04-21T08:34:42.051Z,17.31
2023-04-21T08:39:45.299Z,17.70
2023-04-21T08:44:49.955Z,17.49
2023-04-21T08:49:54.498Z,18.62
2023-04-21T08:54:58.164Z,18.88
2023-04-21T09:00:03.970Z,19.03
2023-04-21T09:05:09.085Z,19.88
2023-04-21T09:10:12.752Z,19.66
2023-04-21T09:15:17.487Z,20.38
2023-04-21T09:20:22.538Z,20.09
2023-04-21T09:25:25.877Z,19.73
2023-04-21T09:30:30.496Z,20.20
2023-04-21T09:35:35.714Z,20.35
2023-04-21T09:40:39.066Z,20.25
2023-04-21T09:45:43.683Z,20.45
2023-04-21T09:55:56.753Z,19.25
2023-04-21T10:01:01.928Z,19.54
2023-04-21T10:06:06.003Z,19.35
2023-04-21T10:11:09.863Z,19.99
2023-04-21T10:16:18.189Z,20.00
2023-04-21T10:21:24.479Z,19.63
2023-04-21T10:26:33.862Z,19.73
2023-04-21T10:31:39.698Z,19.35
2023-04-21T10:37:11.888Z,18.92
2023-04-21T10:42:34.852Z,19.24
2023-04-21T10:47:42.977Z,19.20
2023-04-21T10:52:47.923Z,19.43
2023-04-21T10:57:51.139Z,19.33
2023-04-21T11:03:01.413Z,19.44
2023-04-21T11:08:14.620Z,18.90
2023-04-21T11:13:17.825Z,18.56
2023-04-21T11:18:22.351Z,18.67
2023-04-21T11:23:25.465Z,18.65
2023-04-21T11:28:28.608Z,18.66
2023-04-21T11:33:38.019Z,18.38
2023-04-21T11:38:41.927Z,18.31
2023-04-21T11:43:47.499Z,18.06
2023-04-21T11:49:01.759Z,17.93
2023-04-21T11:54:08.010Z,17.86
2023-04-21T11:59:12.588Z,17.70
2023-04-21T12:04:18.258Z,17.21
2023-04-21T12:09:22.660Z,17.10
2023-04-21T12:14:26.963Z,16.93
2023-04-21T12:19:39.774Z,16.27
2023-04-21T12:24:43.487Z,16.27
2023-04-21T12:29:46.754Z,16.48
2023-04-21T12:34:51.552Z,16.36
2023-04-21T12:39:54.549Z,16.58
2023-04-21T12:44:58.103Z,16.73
2023-04-21T12:50:02.845Z,16.86
2023-04-21T12:55:06.686Z,17.01
2023-04-21T13:00:13.146Z,16.99
2023-04-21T13:05:17.819Z,17.25
2023-04-21T13:10:21.355Z,17.32
2023-04-21T13:15:24.583Z,17.28
2023-04-21T13:20:29.244Z,17.12
2023-04-21T13:25:33.557Z,16.92
2023-04-21T13:30:37.193Z,16.83
2023-04-21T13:35:41.827Z,16.98
2023-04-21T13:40:45.709Z,16.87
2023-04-21T13:45:50.901Z,16.95
2023-04-21T13:50:55.910Z,16.82
2023-04-21T13:55:59.652Z,16.80
2023-04-21T14:01:03.980Z,16.93
2023-04-21T14:06:09.206Z,16.66
2023-04-21T14:11:12.450Z,16.50
2023-04-21T14:16:15.969Z,16.28
2023-04-21T14:21:20.691Z,16.36
2023-04-21T14:26:23.939Z,16.29
2023-04-21T14:31:27.206Z,16.44
2023-04-21T14:36:32.331Z,16.48
2023-04-21T14:41:35.613Z,16.55
2023-04-21T14:46:39.366Z,16.37
2023-04-21T14:51:46.319Z,15.89
2023-04-21T14:56:49.804Z,15.92
2023-04-21T15:01:53.066Z,15.88
2023-04-21T15:06:57.774Z,16.01
2023-04-21T15:12:01.022Z,16.09
2023-04-21T15:17:04.430Z,16.05
2023-04-21T15:22:09.284Z,16.03
2023-04-21T15:27:12.520Z,15.90
2023-04-21T15:32:15.779Z,15.78
2023-04-21T15:37:24.237Z,15.72
2023-04-21T15:42:28.979Z,15.75
2023-04-21T15:47:32.231Z,15.89
2023-04-21T15:52:38.321Z,16.05
2023-04-21T15:57:41.628Z,16.04
2023-04-21T16:02:45.065Z,16.20
2023-04-21T16:07:49.919Z,16.41
2023-04-21T16:12:53.196Z,16.63
2023-04-21T16:17:56.547Z,16.51
2023-04-21T16:23:01.385Z,16.68
2023-04-21T16:28:04.363Z,16.51
2023-04-21T16:33:09.446Z,16.45
2023-04-21T16:38:14.527Z,16.30
2023-04-21T16:43:17.966Z,16.22
2023-04-21T16:48:21.223Z,16.19
2023-04-21T16:53:26.859Z,15.98
2023-04-21T16:58:30.100Z,15.81
2023-04-21T17:03:34.040Z,15.91
2023-04-21T17:08:39.061Z,15.90
2023-04-21T17:13:42.386Z,15.90
2023-04-21T17:18:45.631Z,16.22
2023-04-21T17:23:51.485Z,16.16
2023-04-21T17:28:54.742Z,16.42
2023-04-21T17:33:58.458Z,16.68
2023-04-21T17:39:03.083Z,16.78
2023-04-21T17:44:06.343Z,16.82
2023-04-21T17:49:09.600Z,16.83
2023-04-21T17:54:14.211Z,16.68
2023-04-21T17:59:17.669Z,16.79
2023-04-21T18:04:24.368Z,16.66
2023-04-21T18:09:29.358Z,16.63
2023-04-21T18:14:32.600Z,16.40
2023-04-21T18:19:35.926Z,16.14
2023-04-21T18:24:40.954Z,15.74
2023-04-21T18:29:44.176Z,15.56
2023-04-21T18:34:47.572Z,15.55
2023-04-21T18:39:52.287Z,15.67
2023-04-21T18:44:57.982Z,15.71
2023-04-21T18:50:02.095Z,15.65
2023-04-21T18:55:07.696Z,15.61
2023-04-21T19:00:11.831Z,15.68
2023-04-21T19:05:15.122Z,15.73
2023-04-21T19:10:20.392Z,15.81
2023-04-21T19:15:24.094Z,15.75
2023-04-21T19:20:27.443Z,15.63
2023-04-21T19:25:32.354Z,15.60
2023-04-21T19:30:35.355Z,15.31
2023-04-21T19:35:38.654Z,15.24
2023-04-21T19:40:45.107Z,15.11
2023-04-21T19:45:48.509Z,15.08
2023-04-21T19:50:51.988Z,14.99
2023-04-21T19:55:56.700Z,14.86
2023-04-21T20:01:00.165Z,14.82
2023-04-21T20:06:05.155Z,14.61
2023-04-21T20:11:09.790Z,14.52
2023-04-21T20:16:13.197Z,14.46
2023-04-21T20:21:16.466Z,14.38
2023-04-21T20:26:21.198Z,14.35
2023-04-21T20:31:25.732Z,14.35
2023-04-21T20:36:29.490Z,14.23
2023-04-21T20:41:34.262Z,14.11
2023-04-21T20:46:37.841Z,14.13
2023-04-21T20:51:42.912Z,14.04
2023-04-21T20:56:47.335Z,13.94
2023-04-21T21:01:50.630Z,13.93
2023-04-21T21:06:53.903Z,13.89
2023-04-21T21:11:58.669Z,13.90
2023-04-21T21:17:03.013Z,13.88
2023-04-21T21:22:06.750Z,13.88
2023-04-21T21:27:11.644Z,13.85
2023-04-21T21:32:14.928Z,13.93
2023-04-21T21:37:18.150Z,13.99
2023-04-21T21:42:22.895Z,13.75
2023-04-21T21:47:26.329Z,13.63
2023-04-21T21:52:29.734Z,13.69
2023-04-21T21:57:34.590Z,13.69
2023-04-21T22:02:37.890Z,13.64
2023-04-21T22:07:43.278Z,13.60
2023-04-21T22:12:47.974Z,13.65
2023-04-21T22:17:51.275Z,13.67
2023-04-21T22:22:54.865Z,13.50
2023-04-21T22:27:59.804Z,13.51
2023-04-21T22:33:03.238Z,13.56
2023-04-21T22:38:06.610Z,13.55
2023-04-21T22:43:11.396Z,13.43
2023-04-21T22:48:15.218Z,13.28
2023-04-21T22:53:18.440Z,13.25
2023-04-21T22:58:23.293Z,13.40
2023-04-21T23:03:26.746Z,13.33
2023-04-21T23:08:30.194Z,13.21
2023-04-21T23:13:34.864Z,13.24
2023-04-21T23:18:38.137Z,13.18
2023-04-21T23:23:41.438Z,13.20
2023-04-21T23:28:46.151Z,13.17
2023-04-21T23:33:49.462Z,13.25
2023-04-21T23:38:52.718Z,13.21
2023-04-21T23:43:57.355Z,12.87
2023-04-21T23:49:00.932Z,12.63
2023-04-21T23:54:04.203Z,12.62
2023-04-21T23:59:08.809Z,12.63
